Time;durP1;ratioP1;P1;durP2;ratioP2;P2;SDS_P1;SDS_P2;PMS_P1;PMS_P2;Temp;Humidity;BMP_temperature;BMP_pressure;BME280_temperature;BME280_humidity;BME280_pressure;Samples;Min_cycle;Max_cycle;Signal;HPM_P1;HPM_P2
2022/05/22 00:02:23;;;;;;;3.63;3.17;;;13.20;99.90;;;;;;4904168;29;20346;-89
2022/05/22 00:04:48;;;;;;;2.70;2.50;;;13.20;99.90;;;;;;4909398;29;20302;-89
2022/05/22 00:07:14;;;;;;;4.50;3.40;;;13.00;99.90;;;;;;4903507;29;20246;-89
2022/05/22 00:09:40;;;;;;;3.50;3.20;;;12.90;99.90;;;;;;4895609;29;20798;-88
2022/05/22 00:12:07;;;;;;;3.60;3.30;;;12.90;99.90;;;;;;4904529;29;20287;-89
2022/05/22 00:14:33;;;;;;;3.43;3.17;;;12.90;99.90;;;;;;4910852;28;20734;-90
2022/05/22 00:16:59;;;;;;;4.70;3.10;;;12.90;99.90;;;;;;4909456;29;20502;-89
2022/05/22 00:19:31;;;;;;;3.20;3.00;;;12.90;99.90;;;;;;4911877;29;20187;-89
2022/05/22 00:21:57;;;;;;;5.53;4.10;;;12.90;99.90;;;;;;4918807;29;20212;-89
2022/05/22 00:24:25;;;;;;;3.83;3.53;;;12.90;99.90;;;;;;4932734;28;20488;-89
2022/05/22 00:26:50;;;;;;;5.07;3.67;;;13.00;99.90;;;;;;4909906;29;20574;-89
2022/05/22 00:29:18;;;;;;;4.00;3.33;;;13.00;99.90;;;;;;4926460;28;21098;-89
2022/05/22 00:31:44;;;;;;;5.23;3.50;;;12.90;99.90;;;;;;4924618;28;20451;-89
2022/05/22 00:34:10;;;;;;;5.63;3.77;;;12.90;99.90;;;;;;4916732;29;20451;-89
2022/05/22 00:36:39;;;;;;;5.57;3.93;;;12.90;99.90;;;;;;4914805;29;21258;-89
2022/05/22 00:39:05;;;;;;;5.90;3.70;;;12.90;99.90;;;;;;4918309;29;20499;-89
2022/05/22 00:41:34;;;;;;;3.60;3.20;;;13.00;99.90;;;;;;4918353;29;20443;-89
2022/05/22 00:44:01;;;;;;;5.30;3.80;;;12.90;99.90;;;;;;4915717;29;20510;-89
2022/05/22 00:46:29;;;;;;;4.93;3.60;;;12.90;99.90;;;;;;4916986;29;21071;-89
2022/05/22 00:49:05;;;;;;;4.27;3.27;;;12.90;99.90;;;;;;4935832;28;21045;-90
2022/05/22 00:51:43;;;;;;;3.60;3.30;;;12.90;99.90;;;;;;4930306;28;20455;-89
2022/05/22 00:54:24;;;;;;;4.17;3.77;;;12.80;99.90;;;;;;4916380;29;20483;-88
2022/05/22 00:56:59;;;;;;;4.00;3.70;;;12.90;99.90;;;;;;4915718;29;20593;-89
2022/05/22 00:59:33;;;;;;;4.80;4.40;;;13.00;99.90;;;;;;4922007;29;20443;-89
2022/05/22 01:02:02;;;;;;;3.83;3.53;;;13.00;99.90;;;;;;4913985;29;20460;-89
2022/05/22 01:04:30;;;;;;;3.43;3.20;;;13.00;99.90;;;;;;4924402;28;21317;-89
2022/05/22 01:06:56;;;;;;;6.40;4.17;;;12.90;99.90;;;;;;4914391;29;20459;-89
2022/05/22 01:09:21;;;;;;;6.30;4.47;;;12.90;99.90;;;;;;4918240;29;20462;-88
2022/05/22 01:11:50;;;;;;;4.30;4.00;;;12.90;99.90;;;;;;4910540;29;20549;-89
2022/05/22 01:14:22;;;;;;;4.60;3.83;;;12.80;99.90;;;;;;4911772;29;20183;-88
2022/05/22 01:16:50;;;;;;;4.80;4.00;;;12.70;99.90;;;;;;4928272;28;20436;-88
2022/05/22 01:19:18;;;;;;;4.87;4.43;;;12.70;99.90;;;;;;4905647;29;21264;-88
2022/05/22 01:22:04;;;;;;;5.13;4.37;;;12.70;99.90;;;;;;4895840;29;20475;-88
2022/05/22 01:24:30;;;;;;;6.70;4.80;;;12.80;99.90;;;;;;4898050;29;20574;-88
2022/05/22 01:26:59;;;;;;;4.10;3.80;;;12.80;99.90;;;;;;4894113;29;20447;-89
2022/05/22 01:29:25;;;;;;;4.70;3.80;;;12.80;99.90;;;;;;4895306;29;20216;-89
2022/05/22 01:31:51;;;;;;;3.90;3.50;;;12.60;99.90;;;;;;4916519;29;20451;-89
2022/05/22 01:34:33;;;;;;;4.67;4.30;;;12.50;99.90;;;;;;4912010;28;20255;-89
2022/05/22 01:37:30;;;;;;;5.30;4.80;;;12.50;99.90;;;;;;4898252;29;20189;-89
2022/05/22 01:39:56;;;;;;;4.90;4.50;;;12.50;99.90;;;;;;4899625;29;20479;-89
2022/05/22 01:42:21;;;;;;;4.90;4.40;;;12.60;99.90;;;;;;4896575;29;20856;-89
2022/05/22 01:44:47;;;;;;;5.60;5.00;;;12.60;99.90;;;;;;4894192;29;20223;-89
2022/05/22 01:47:15;;;;;;;7.33;5.70;;;12.60;99.90;;;;;;4912400;28;20231;-88
2022/05/22 01:49:40;;;;;;;5.00;4.60;;;12.50;99.90;;;;;;4907732;29;20207;-89
2022/05/22 01:52:09;;;;;;;4.00;3.70;;;12.40;99.90;;;;;;4915611;28;20455;-88
2022/05/22 01:54:35;;;;;;;5.37;4.80;;;12.30;99.90;;;;;;4913548;28;20250;-90
2022/05/22 01:57:01;;;;;;;4.70;4.20;;;12.30;99.90;;;;;;4894321;29;20444;-89
2022/05/22 01:59:27;;;;;;;7.37;4.20;;;12.30;99.90;;;;;;4897050;29;20899;-89
2022/05/22 02:01:52;;;;;;;5.87;4.23;;;12.40;99.90;;;;;;4909351;29;21154;-89
2022/05/22 02:04:18;;;;;;;4.53;3.97;;;12.30;99.90;;;;;;4893707;29;20485;-89
2022/05/22 02:09:28;;;;;;;5.33;4.17;;;12.10;99.90;;;;;;4899018;29;20420;-90
2022/05/22 02:11:53;;;;;;;7.03;4.73;;;12.10;99.90;;;;;;4911127;28;20448;-88
2022/05/22 02:14:21;;;;;;;5.60;5.10;;;12.20;99.90;;;;;;4897475;29;20650;-88
2022/05/22 02:16:53;;;;;;;5.90;4.60;;;12.30;99.90;;;;;;4909730;29;20504;-89
2022/05/22 02:19:18;;;;;;;3.83;3.50;;;12.20;99.90;;;;;;4895870;29;20460;-89
2022/05/22 02:21:45;;;;;;;4.67;4.17;;;12.10;99.90;;;;;;4898182;29;20455;-89
2022/05/22 02:24:11;;;;;;;6.40;4.20;;;12.10;99.90;;;;;;4902661;29;20433;-88
2022/05/22 02:26:53;;;;;;;4.50;4.10;;;12.10;99.90;;;;;;4916523;28;20463;-88
2022/05/22 02:29:30;;;;;;;4.57;4.17;;;12.10;99.90;;;;;;4898407;29;20219;-89
2022/05/22 02:31:59;;;;;;;4.97;4.50;;;12.20;99.90;;;;;;4906608;29;20897;-89
2022/05/22 02:34:27;;;;;;;4.50;4.20;;;12.20;99.90;;;;;;4922431;29;20480;-89
2022/05/22 02:36:52;;;;;;;6.63;4.50;;;12.20;99.90;;;;;;4916659;29;20440;-89
2022/05/22 02:39:18;;;;;;;7.10;4.37;;;12.20;99.90;;;;;;4916841;29;20474;-90
2022/05/22 02:41:44;;;;;;;4.07;3.73;;;12.10;99.90;;;;;;4910786;29;20403;-90
2022/05/22 02:44:10;;;;;;;5.37;4.33;;;12.00;99.90;;;;;;4921546;29;20538;-88
2022/05/22 02:46:36;;;;;;;4.23;3.83;;;11.80;99.90;;;;;;4933712;28;20444;-91
2022/05/22 02:49:02;;;;;;;5.57;4.87;;;11.90;99.90;;;;;;4920542;29;20439;-88
2022/05/22 02:51:27;;;;;;;4.30;4.00;;;12.00;99.90;;;;;;4932230;28;20555;-88
2022/05/22 02:53:54;;;;;;;4.70;4.30;;;12.20;99.90;;;;;;4928703;28;20455;-88
2022/05/22 02:56:22;;;;;;;5.10;4.70;;;12.20;99.90;;;;;;4933145;28;20239;-88
2022/05/22 02:58:48;;;;;;;4.57;4.17;;;12.30;99.90;;;;;;4920486;29;20455;-89
2022/05/22 03:01:31;;;;;;;4.63;4.20;;;12.30;99.90;;;;;;4912187;29;20441;-88
2022/05/22 03:04:10;;;;;;;5.23;4.73;;;12.30;99.90;;;;;;4918339;29;20215;-88
2022/05/22 03:06:39;;;;;;;4.77;4.37;;;12.30;99.90;;;;;;4921740;29;20450;-88
2022/05/22 03:09:16;;;;;;;4.50;4.20;;;12.10;99.90;;;;;;4909176;29;20534;-88
2022/05/22 03:11:43;;;;;;;4.70;4.30;;;12.10;99.90;;;;;;4914782;28;20494;-87
2022/05/22 03:14:10;;;;;;;4.53;4.13;;;12.00;99.90;;;;;;4913618;29;20448;-87
2022/05/22 03:16:36;;;;;;;4.57;4.27;;;12.00;99.90;;;;;;4922585;29;20432;-88
2022/05/22 03:19:01;;;;;;;4.83;4.00;;;11.90;99.90;;;;;;4911820;29;21076;-88
2022/05/22 03:21:27;;;;;;;4.70;4.30;;;11.80;99.90;;;;;;4915854;29;20266;-87
2022/05/22 03:23:53;;;;;;;4.50;4.20;;;11.70;99.90;;;;;;4913185;29;20290;-87
2022/05/22 03:26:19;;;;;;;4.93;4.07;;;11.70;99.90;;;;;;4912342;29;20779;-87
2022/05/22 03:28:45;;;;;;;7.33;4.47;;;11.70;99.90;;;;;;4920139;29;20434;-88
2022/05/22 03:31:11;;;;;;;4.37;4.00;;;11.70;99.90;;;;;;4914124;29;20223;-87
2022/05/22 03:33:36;;;;;;;5.20;4.77;;;11.70;99.90;;;;;;4910088;29;20179;-89
2022/05/22 03:36:03;;;;;;;4.57;4.27;;;11.70;99.90;;;;;;4909151;29;20536;-88
2022/05/22 03:38:28;;;;;;;7.60;5.20;;;11.60;99.90;;;;;;4913761;28;20180;-90
2022/05/22 03:40:54;;;;;;;4.80;4.40;;;11.70;99.90;;;;;;4904728;28;20474;-87
2022/05/22 03:43:19;;;;;;;4.43;4.03;;;11.60;99.90;;;;;;4892971;29;21129;-86
2022/05/22 03:45:45;;;;;;;4.23;3.93;;;11.60;99.90;;;;;;4896581;29;20218;-87
2022/05/22 03:48:12;;;;;;;5.27;4.83;;;11.60;99.90;;;;;;4899096;29;20187;-87
2022/05/22 03:50:38;;;;;;;4.40;4.10;;;11.60;99.90;;;;;;4913204;28;20283;-90
2022/05/22 03:53:14;;;;;;;5.03;4.23;;;11.50;99.90;;;;;;4902445;29;20550;-87
2022/05/22 03:55:42;;;;;;;5.13;4.63;;;11.50;99.90;;;;;;4892615;29;20458;-90
2022/05/22 03:58:08;;;;;;;5.43;4.93;;;11.50;99.90;;;;;;4898302;29;20444;-90
2022/05/22 04:00:34;;;;;;;7.20;4.80;;;11.50;99.90;;;;;;4897828;29;20601;-88
2022/05/22 04:03:00;;;;;;;4.97;4.47;;;11.60;99.90;;;;;;4898585;29;20481;-88
2022/05/22 04:05:26;;;;;;;3.90;3.60;;;11.60;99.90;;;;;;4901494;29;20551;-89
2022/05/22 04:07:52;;;;;;;7.77;5.27;;;11.60;99.90;;;;;;4927421;28;20437;-87
2022/05/22 04:10:18;;;;;;;3.93;3.63;;;11.50;99.90;;;;;;4912404;29;20439;-88
2022/05/22 04:12:44;;;;;;;4.80;3.90;;;11.50;99.90;;;;;;4914988;29;20175;-88
2022/05/22 04:15:14;;;;;;;4.90;4.47;;;11.60;99.90;;;;;;4912439;29;20450;-88
2022/05/22 04:17:46;;;;;;;5.73;4.43;;;11.60;99.90;;;;;;4910180;29;20853;-89
2022/05/22 04:20:16;;;;;;;4.37;3.97;;;11.60;99.90;;;;;;4931097;28;20546;-88
2022/05/22 04:25:34;;;;;;;5.30;4.03;;;11.50;99.90;;;;;;4918751;29;20465;-90
2022/05/22 04:28:00;;;;;;;4.90;4.50;;;11.40;99.90;;;;;;4936014;28;20455;-87
2022/05/22 04:30:26;;;;;;;5.00;4.50;;;11.40;99.90;;;;;;4913370;29;20466;-88
2022/05/22 04:32:52;;;;;;;4.90;4.50;;;11.30;99.90;;;;;;4913780;29;20626;-88
2022/05/22 04:35:19;;;;;;;4.90;4.40;;;11.30;99.90;;;;;;4932974;28;20188;-89
2022/05/22 04:37:45;;;;;;;5.77;4.13;;;11.30;99.90;;;;;;4919804;29;20456;-88
2022/05/22 04:40:12;;;;;;;4.63;4.23;;;11.40;99.90;;;;;;4916967;29;20822;-88
2022/05/22 04:42:39;;;;;;;4.77;4.40;;;11.30;99.90;;;;;;4915520;29;20984;-89
2022/05/22 04:45:07;;;;;;;4.37;4.07;;;11.30;99.90;;;;;;4915349;29;20498;-88
2022/05/22 04:47:38;;;;;;;4.60;4.20;;;11.40;99.90;;;;;;4910024;29;20521;-87
2022/05/22 04:50:05;;;;;;;5.03;4.47;;;11.40;99.90;;;;;;4913532;29;20439;-90
2022/05/22 04:52:32;;;;;;;4.30;4.00;;;11.40;99.90;;;;;;4913841;29;20439;-89
2022/05/22 04:54:57;;;;;;;4.07;3.73;;;11.70;99.90;;;;;;4918241;29;20452;-90
2022/05/22 04:57:23;;;;;;;4.00;3.70;;;11.80;99.90;;;;;;4919640;29;20809;-91
2022/05/22 04:59:48;;;;;;;6.90;3.93;;;12.10;99.90;;;;;;4920987;29;20195;-90
2022/05/22 05:02:14;;;;;;;4.10;3.63;;;12.10;99.90;;;;;;4917312;29;20208;-92
2022/05/22 05:04:39;;;;;;;4.47;4.07;;;12.30;99.90;;;;;;4925170;28;20310;-92
2022/05/22 05:07:07;;;;;;;4.47;4.10;;;12.40;99.90;;;;;;4908808;29;20847;-91
2022/05/22 05:09:34;;;;;;;3.77;3.50;;;12.60;99.90;;;;;;4905630;29;20433;-92
2022/05/22 05:12:01;;;;;;;5.00;4.20;;;12.70;99.90;;;;;;4905999;29;20448;-91
2022/05/22 05:14:27;;;;;;;4.60;4.20;;;12.70;99.90;;;;;;4911658;29;20960;-91
2022/05/22 05:16:53;;;;;;;4.13;3.77;;;12.60;99.90;;;;;;4919966;28;20486;-92
2022/05/22 05:19:20;;;;;;;4.20;3.80;;;12.80;99.90;;;;;;4925525;28;20550;-91
2022/05/22 05:21:45;;;;;;;4.50;4.10;;;12.80;99.90;;;;;;4919905;28;20242;-91
2022/05/22 05:24:11;;;;;;;4.57;4.17;;;13.00;99.90;;;;;;4918036;28;24218;-91
2022/05/22 05:26:36;;;;;;;4.80;3.87;;;13.00;99.90;;;;;;4908498;29;20187;-91
2022/05/22 05:29:02;;;;;;;4.30;4.00;;;13.10;99.90;;;;;;4906318;29;20216;-91
2022/05/22 05:31:28;;;;;;;5.00;4.60;;;13.10;99.90;;;;;;4909712;29;20203;-90
2022/05/22 05:33:53;;;;;;;4.13;3.70;;;13.30;99.90;;;;;;4906668;29;20199;-90
2022/05/22 05:36:19;;;;;;;4.40;4.03;;;13.70;99.90;;;;;;4909433;29;20327;-91
2022/05/22 05:38:45;;;;;;;4.23;3.93;;;13.90;99.90;;;;;;4927858;28;20243;-89
2022/05/22 05:41:11;;;;;;;4.23;3.93;;;14.00;99.90;;;;;;4907009;29;20642;-91
2022/05/22 05:43:37;;;;;;;5.00;4.30;;;14.30;99.90;;;;;;4903927;29;20473;-92
2022/05/22 05:46:03;;;;;;;3.80;3.50;;;14.10;99.90;;;;;;4927202;28;21481;-95
2022/05/22 05:48:29;;;;;;;4.27;3.83;;;14.10;99.90;;;;;;4927640;29;20626;-96
2022/05/22 05:50:55;;;;;;;4.50;4.10;;;14.20;99.90;;;;;;4936606;28;20464;-93
2022/05/22 05:53:21;;;;;;;5.53;3.97;;;14.20;99.90;;;;;;4910581;29;20250;-88
2022/05/22 05:55:47;;;;;;;5.00;4.17;;;14.10;99.90;;;;;;4903825;29;21191;-90
2022/05/22 05:58:13;;;;;;;4.13;3.80;;;13.90;99.90;;;;;;4915449;29;20571;-93
2022/05/22 06:00:43;;;;;;;4.80;4.50;;;14.00;99.90;;;;;;4925947;28;20501;-95
2022/05/22 06:03:12;;;;;;;4.80;3.60;;;14.10;99.90;;;;;;4914636;29;20218;-94
2022/05/22 06:05:45;;;;;;;4.60;4.13;;;14.00;99.90;;;;;;4926127;28;20471;-96
2022/05/22 06:08:14;;;;;;;3.87;3.57;;;14.20;99.90;;;;;;4913046;29;20272;-96
2022/05/22 06:10:40;;;;;;;4.00;3.70;;;14.40;99.90;;;;;;4930993;28;20463;-95
2022/05/22 06:13:08;;;;;;;5.13;4.63;;;14.60;99.90;;;;;;4918153;29;20529;-96
2022/05/22 06:15:34;;;;;;;3.97;3.77;;;14.70;99.90;;;;;;4927325;29;20423;-93
2022/05/22 06:18:01;;;;;;;5.47;4.20;;;14.80;99.90;;;;;;4901921;29;20451;-95
2022/05/22 06:20:29;;;;;;;4.00;3.80;;;15.00;99.90;;;;;;4908750;29;20462;-94
2022/05/22 06:23:01;;;;;;;3.90;3.60;;;15.00;99.90;;;;;;4907632;29;20545;-94
2022/05/22 06:25:27;;;;;;;8.93;3.37;;;14.90;99.90;;;;;;4902182;29;20460;-91
2022/05/22 06:27:52;;;;;;;5.50;3.90;;;15.00;99.90;;;;;;4904704;29;20188;-94
2022/05/22 06:30:18;;;;;;;3.40;3.10;;;15.20;99.90;;;;;;4908867;28;20195;-88
2022/05/22 06:32:44;;;;;;;3.33;3.13;;;15.40;99.90;;;;;;4902987;29;20192;-90
2022/05/22 06:35:12;;;;;;;3.60;3.40;;;15.60;99.90;;;;;;4905569;29;20478;-87
2022/05/22 06:37:38;;;;;;;3.30;3.00;;;15.70;99.90;;;;;;4917392;29;20207;-90
2022/05/22 06:40:05;;;;;;;3.53;3.30;;;15.80;99.90;;;;;;4917471;29;20468;-89
2022/05/22 06:42:34;;;;;;;3.37;3.07;;;16.00;99.90;;;;;;4918996;29;20610;-86
2022/05/22 06:45:06;;;;;;;3.03;2.83;;;16.10;99.90;;;;;;4916003;29;20475;-88
2022/05/22 06:47:34;;;;;;;3.03;2.83;;;16.20;99.90;;;;;;4936451;28;20447;-87
2022/05/22 06:50:03;;;;;;;3.70;3.40;;;16.40;99.90;;;;;;4924338;29;20542;-87
2022/05/22 06:52:50;;;;;;;3.23;3.03;;;16.70;99.90;;;;;;4920681;29;20518;-88
2022/05/22 06:55:18;;;;;;;3.50;3.20;;;16.90;99.90;;;;;;4916160;29;20424;-89
2022/05/22 06:57:44;;;;;;;3.70;2.90;;;16.80;99.90;;;;;;4935713;28;20465;-89
2022/05/22 07:00:14;;;;;;;3.77;3.47;;;16.90;99.90;;;;;;4925961;28;20439;-88
2022/05/22 07:02:41;;;;;;;3.60;3.30;;;16.90;99.90;;;;;;4908123;29;20238;-89
2022/05/22 07:05:08;;;;;;;3.50;3.10;;;17.00;99.90;;;;;;4921633;28;20460;-88
2022/05/22 07:07:34;;;;;;;4.00;3.23;;;17.00;99.90;;;;;;4904983;29;20506;-89
2022/05/22 07:09:59;;;;;;;3.63;3.33;;;17.10;99.90;;;;;;4917377;28;20454;-90
2022/05/22 07:12:25;;;;;;;3.67;2.70;;;17.20;99.90;;;;;;4922451;28;20212;-89
2022/05/22 07:14:55;;;;;;;4.47;3.30;;;17.40;99.90;;;;;;4905588;29;20228;-89
2022/05/22 07:17:40;;;;;;;3.20;3.00;;;17.80;99.90;;;;;;4904027;29;20942;-91
2022/05/22 07:20:14;;;;;;;3.10;2.73;;;18.10;99.90;;;;;;4918125;28;20455;-90
2022/05/22 07:22:40;;;;;;;8.93;3.67;;;18.20;99.90;;;;;;4909274;29;20453;-90
2022/05/22 07:25:06;;;;;;;6.17;3.30;;;18.30;99.90;;;;;;4928473;28;20465;-89
2022/05/22 07:27:31;;;;;;;3.30;3.00;;;18.40;99.90;;;;;;4922313;29;20195;-89
2022/05/22 07:29:57;;;;;;;2.90;2.70;;;18.40;99.20;;;;;;4928246;29;20473;-90
2022/05/22 07:32:25;;;;;;;3.43;3.13;;;18.30;99.90;;;;;;4944699;28;20271;-89
2022/05/22 07:35:00;;;;;;;2.93;2.70;;;18.30;99.90;;;;;;4929108;29;20239;-89
2022/05/22 07:37:52;;;;;;;3.00;2.80;;;18.30;99.90;;;;;;4926805;29;20797;-89
2022/05/22 07:40:29;;;;;;;3.50;3.20;;;18.60;99.20;;;;;;4931416;29;20493;-90
2022/05/22 07:43:09;;;;;;;3.00;2.63;;;18.60;99.90;;;;;;4932204;29;20494;-90
2022/05/22 07:45:38;;;;;;;2.50;2.30;;;18.70;99.40;;;;;;4930243;29;20492;-89
2022/05/22 07:48:18;;;;;;;2.50;2.30;;;18.80;98.90;;;;;;4947278;28;20444;-89
2022/05/22 07:50:46;;;;;;;2.70;2.43;;;18.90;97.60;;;;;;4933259;29;20541;-89
2022/05/22 07:53:14;;;;;;;3.53;2.60;;;18.80;97.40;;;;;;4934983;29;20846;-91
2022/05/22 07:55:40;;;;;;;2.93;2.53;;;18.90;98.30;;;;;;4947517;28;20475;-90
2022/05/22 07:58:08;;;;;;;2.67;2.07;;;18.90;97.50;;;;;;4945626;28;20542;-90
2022/05/22 08:00:37;;;;;;;4.83;2.93;;;18.90;98.50;;;;;;4948231;28;20215;-90
2022/05/22 08:03:14;;;;;;;2.83;2.47;;;18.90;97.50;;;;;;4944441;28;20462;-89
2022/05/22 08:05:48;;;;;;;2.90;2.30;;;19.10;99.10;;;;;;4941489;28;20523;-90
2022/05/22 08:08:24;;;;;;;;;;;;;;;;;;;;;
2022/05/22 08:10:51;;;;;;;3.07;2.80;;;19.80;97.10;;;;;;4930646;29;20446;-90
2022/05/22 08:13:24;;;;;;;2.50;2.30;;;19.90;95.70;;;;;;4946787;28;20522;-88
2022/05/22 08:16:00;;;;;;;2.50;2.30;;;19.90;95.40;;;;;;4944030;28;20455;-91
2022/05/22 08:18:28;;;;;;;2.53;2.43;;;19.90;95.50;;;;;;4928330;29;20452;-90
2022/05/22 08:21:01;;;;;;;3.37;2.40;;;19.60;97.40;;;;;;4939685;28;20451;-89
2022/05/22 08:23:50;;;;;;;2.90;2.70;;;19.80;97.10;;;;;;4930552;29;20443;-89
2022/05/22 08:26:18;;;;;;;3.57;2.60;;;19.90;95.40;;;;;;4943567;28;20459;-89
2022/05/22 08:28:51;;;;;;;3.00;2.50;;;19.90;95.60;;;;;;4942800;28;20448;-90
2022/05/22 08:31:21;;;;;;;3.03;2.73;;;20.10;96.00;;;;;;4946798;28;20746;-90
2022/05/22 08:33:49;;;;;;;2.90;2.70;;;20.20;95.00;;;;;;4932934;29;20462;-90
2022/05/22 08:36:24;;;;;;;3.70;2.50;;;20.30;96.10;;;;;;4946240;28;20454;-90
2022/05/22 08:39:17;;;;;;;2.60;2.40;;;20.30;96.20;;;;;;4942401;28;20443;-89
2022/05/22 08:41:48;;;;;;;3.43;2.50;;;20.50;97.60;;;;;;4943215;28;20443;-90
2022/05/22 08:44:17;;;;;;;2.57;2.47;;;20.90;97.20;;;;;;4929265;29;20488;-89
2022/05/22 08:47:02;;;;;;;3.73;3.43;;;21.10;95.90;;;;;;4928917;28;20806;-90
2022/05/22 08:49:37;;;;;;;3.50;2.23;;;21.00;96.00;;;;;;4933311;29;20969;-89
2022/05/22 08:52:18;;;;;;;2.90;2.70;;;21.10;96.80;;;;;;4931547;29;20814;-89
2022/05/22 08:54:50;;;;;;;3.47;2.80;;;21.20;95.30;;;;;;4934534;29;20438;-89
2022/05/22 09:00:20;;;;;;;2.63;2.40;;;21.20;95.90;;;;;;4934188;29;20426;-90
2022/05/22 09:02:59;;;;;;;3.20;1.93;;;21.40;96.00;;;;;;4929841;29;20428;-90
2022/05/22 09:05:28;;;;;;;2.13;2.03;;;21.40;92.70;;;;;;4942432;28;20455;-90
2022/05/22 09:08:47;;;;;;;2.90;2.57;;;21.30;93.30;;;;;;4943341;28;20469;-90
2022/05/22 09:11:50;;;;;;;;;;;;;;;;;;;;;
2022/05/22 09:14:47;;;;;;;2.80;2.60;;;20.70;96.60;;;;;;4931514;28;21029;-90
2022/05/22 09:17:23;;;;;;;3.63;2.50;;;21.00;97.00;;;;;;4934542;28;20440;-90
2022/05/22 09:20:19;;;;;;;2.30;2.20;;;21.10;94.70;;;;;;4949092;28;20447;-90
2022/05/22 09:23:17;;;;;;;2.57;2.37;;;21.60;95.00;;;;;;4928569;29;21161;-90
2022/05/22 09:25:51;;;;;;;3.57;2.13;;;21.70;94.70;;;;;;4926736;29;20454;-90
2022/05/22 09:28:37;;;;;;;2.27;2.07;;;22.00;95.80;;;;;;4929170;29;20428;-91
2022/05/22 09:31:51;;;;;;;;;;;;;;;;;;;;;
2022/05/22 09:34:49;;;;;;;2.30;2.10;;;22.10;91.30;;;;;;4934700;29;20503;-90
2022/05/22 09:37:44;;;;;;;2.20;2.00;;;21.90;92.10;;;;;;4946046;28;20439;-89
2022/05/22 09:40:28;;;;;;;3.00;2.47;;;22.30;92.70;;;;;;4915977;29;20471;-89
2022/05/22 09:43:27;;;;;;;2.57;2.37;;;22.40;90.60;;;;;;4952534;28;20467;-90
2022/05/22 09:46:28;;;;;;;2.43;2.00;;;21.90;92.00;;;;;;4934682;29;20479;-90
2022/05/22 09:49:27;;;;;;;2.10;2.00;;;21.50;92.50;;;;;;4924788;29;20463;-90
2022/05/22 09:52:18;;;;;;;2.60;2.43;;;21.70;92.70;;;;;;4933951;29;20507;-90
2022/05/22 09:55:11;;;;;;;2.53;2.33;;;21.80;91.60;;;;;;4929951;29;20447;-89
2022/05/22 09:58:11;;;;;;;2.60;1.90;;;22.10;92.80;;;;;;4938438;29;20435;-89
2022/05/22 10:00:58;;;;;;;2.27;2.17;;;22.60;91.90;;;;;;4930011;29;20459;-90
2022/05/22 10:03:49;;;;;;;4.27;2.20;;;23.00;93.10;;;;;;4937306;28;20559;-90
2022/05/22 10:06:48;;;;;;;2.03;1.90;;;23.10;91.60;;;;;;4936509;29;20458;-90
2022/05/22 10:09:28;;;;;;;1.77;1.67;;;23.40;87.00;;;;;;4935610;29;20443;-90
2022/05/22 10:12:19;;;;;;;1.63;1.50;;;23.40;84.60;;;;;;4934922;29;20597;-89
2022/05/22 10:14:53;;;;;;;3.20;2.00;;;23.60;85.10;;;;;;4932676;29;20439;-90
2022/05/22 10:17:53;;;;;;;1.90;1.80;;;24.00;88.40;;;;;;4934272;29;20455;-90
2022/05/22 10:20:43;;;;;;;3.13;1.70;;;24.00;83.80;;;;;;4947770;28;20459;-90
2022/05/22 10:23:34;;;;;;;2.77;1.63;;;23.40;82.90;;;;;;4937046;29;20436;-90
2022/05/22 10:26:43;;;;;;;1.63;1.53;;;22.80;85.60;;;;;;4929842;29;20458;-90
2022/05/22 10:29:29;;;;;;;;;;;;;;;;;;;;;
2022/05/22 10:32:01;;;;;;;1.33;1.27;;;23.30;83.70;;;;;;4932968;29;20445;-90
2022/05/22 10:34:50;;;;;;;2.03;1.60;;;23.50;82.00;;;;;;4937687;29;21521;-90
2022/05/22 10:37:45;;;;;;;2.60;2.10;;;23.40;82.00;;;;;;4933601;29;20478;-90
2022/05/22 10:40:17;;;;;;;1.80;1.63;;;23.20;84.60;;;;;;4947958;28;20448;-91
2022/05/22 10:42:59;;;;;;;2.50;1.93;;;23.10;87.60;;;;;;4933603;29;20561;-90
2022/05/22 10:45:55;;;;;;;1.90;1.80;;;23.30;88.30;;;;;;4927052;29;20448;-91
2022/05/22 10:48:41;;;;;;;1.70;1.60;;;23.50;89.30;;;;;;4927769;28;20439;-90
2022/05/22 10:51:18;;;;;;;2.00;1.90;;;23.60;88.10;;;;;;4919340;29;20483;-91
2022/05/22 10:54:12;;;;;;;2.80;2.07;;;24.20;90.80;;;;;;4932735;29;20462;-90
2022/05/22 10:56:49;;;;;;;1.83;1.73;;;24.60;89.10;;;;;;4928647;29;20439;-90
2022/05/22 10:59:28;;;;;;;2.00;1.90;;;24.30;83.80;;;;;;4933769;29;20492;-96
2022/05/22 11:02:03;;;;;;;1.60;1.50;;;24.70;87.50;;;;;;4932042;29;20459;-88
2022/05/22 11:04:43;;;;;;;2.10;1.77;;;24.80;84.50;;;;;;4946948;28;20887;-91
2022/05/22 11:07:10;;;;;;;1.70;1.60;;;24.90;85.30;;;;;;4938245;29;20487;-90
2022/05/22 11:09:47;;;;;;;1.70;1.60;;;25.20;81.90;;;;;;4946404;28;20436;-91
2022/05/22 11:12:18;;;;;;;2.60;2.03;;;25.20;78.70;;;;;;4949907;28;20516;-91
2022/05/22 11:14:43;;;;;;;2.83;2.03;;;24.80;77.10;;;;;;4932271;29;20435;-88
2022/05/22 11:17:16;;;;;;;2.13;1.97;;;25.20;79.40;;;;;;4934940;29;20502;-90
2022/05/22 11:19:45;;;;;;;3.33;3.07;;;25.20;78.00;;;;;;4928899;29;20187;-90
2022/05/22 11:22:27;;;;;;;1.60;1.50;;;25.50;77.80;;;;;;4930239;29;20853;-91
2022/05/22 11:25:22;;;;;;;2.20;2.03;;;26.00;75.00;;;;;;4936201;29;20520;-90
2022/05/22 11:28:10;;;;;;;2.20;1.77;;;26.00;77.70;;;;;;4947575;28;20439;-90
2022/05/22 11:31:25;;;;;;;1.90;1.67;;;26.10;74.20;;;;;;4930532;29;20444;-91
2022/05/22 11:34:13;;;;;;;6.40;5.73;;;25.70;74.80;;;;;;4870528;29;20446;-90
2022/05/22 11:37:33;;;;;;;3.67;2.23;;;26.00;76.30;;;;;;4934586;29;20460;-90
2022/05/22 11:40:22;;;;;;;2.00;1.67;;;26.00;71.90;;;;;;4875736;29;20450;-90
2022/05/22 11:43:01;;;;;;;2.13;1.90;;;26.20;73.60;;;;;;4931493;29;20476;-89
2022/05/22 11:45:32;;;;;;;1.87;1.60;;;25.80;73.50;;;;;;4933149;28;20462;-89
2022/05/22 11:48:09;;;;;;;2.77;2.20;;;25.70;78.30;;;;;;4932949;29;20431;-89
2022/05/22 11:51:03;;;;;;;1.93;1.73;;;26.00;76.00;;;;;;4934473;29;20451;-91
2022/05/22 11:53:50;;;;;;;2.20;2.10;;;25.90;73.30;;;;;;4908506;29;20452;-89
2022/05/22 11:56:38;;;;;;;2.67;1.90;;;25.50;73.60;;;;;;4928754;29;20447;-87
2022/05/22 11:59:19;;;;;;;4.73;1.80;;;25.50;74.70;;;;;;4931568;29;20464;-91
2022/05/22 12:02:03;;;;;;;2.77;2.00;;;26.10;73.10;;;;;;4930756;29;20430;-91
2022/05/22 12:04:53;;;;;;;1.73;1.63;;;25.80;74.10;;;;;;4929085;29;20494;-89
2022/05/22 12:07:53;;;;;;;2.20;1.70;;;26.10;70.80;;;;;;4936779;29;20534;-89
2022/05/22 12:10:53;;;;;;;1.40;1.30;;;25.40;72.80;;;;;;4933188;28;20530;-88
2022/05/22 12:13:39;;;;;;;1.70;1.60;;;25.80;76.30;;;;;;4928510;29;20448;-89
2022/05/22 12:16:20;;;;;;;1.70;1.60;;;26.50;74.30;;;;;;4946462;28;20435;-89
2022/05/22 12:19:00;;;;;;;1.63;1.53;;;26.60;75.50;;;;;;4932706;29;20952;-90
2022/05/22 12:21:39;;;;;;;1.57;1.47;;;26.40;74.60;;;;;;4949120;28;20432;-89
2022/05/22 12:24:24;;;;;;;1.77;1.67;;;26.70;74.60;;;;;;4949119;28;20547;-89
2022/05/22 12:26:51;;;;;;;2.23;1.80;;;26.80;72.20;;;;;;4948900;28;20486;-89
2022/05/22 12:29:30;;;;;;;1.80;1.70;;;26.80;67.80;;;;;;4929050;29;20484;-89
2022/05/22 12:31:59;;;;;;;2.10;1.83;;;26.80;75.40;;;;;;4929263;29;20439;-88
2022/05/22 12:34:51;;;;;;;2.10;1.90;;;27.00;70.50;;;;;;4937643;29;20440;-89
2022/05/22 12:37:39;;;;;;;1.70;1.60;;;27.10;71.20;;;;;;4947612;28;20530;-89
2022/05/22 12:40:13;;;;;;;1.60;1.50;;;27.10;66.00;;;;;;4949483;28;20450;-90
2022/05/22 12:42:44;;;;;;;1.60;1.50;;;27.30;67.20;;;;;;4926524;29;20447;-91
2022/05/22 12:45:10;;;;;;;1.80;1.70;;;26.70;65.20;;;;;;4930070;29;20585;-89
2022/05/22 12:47:48;;;;;;;2.53;1.63;;;26.80;65.80;;;;;;4947656;28;20603;-88
2022/05/22 12:50:33;;;;;;;2.10;1.60;;;27.10;66.50;;;;;;4931837;29;20206;-89
2022/05/22 12:52:58;;;;;;;2.20;1.70;;;27.90;63.10;;;;;;4948447;28;20826;-89
2022/05/22 12:55:59;;;;;;;3.07;1.87;;;27.90;67.00;;;;;;4940857;28;20468;-90
2022/05/22 12:58:47;;;;;;;2.63;1.50;;;27.70;69.70;;;;;;4931484;29;20192;-90
2022/05/22 13:01:40;;;;;;;1.70;1.60;;;27.60;66.10;;;;;;4930070;28;20443;-94
2022/05/22 13:04:24;;;;;;;1.67;1.57;;;27.80;67.90;;;;;;4945497;28;20814;-94
2022/05/22 13:06:59;;;;;;;1.50;1.40;;;27.80;66.30;;;;;;4918844;29;20439;-89
2022/05/22 13:09:30;;;;;;;1.57;1.50;;;28.30;64.90;;;;;;4931237;29;21766;-93
2022/05/22 13:11:59;;;;;;;2.70;1.70;;;28.40;62.90;;;;;;4930045;29;20435;-91
2022/05/22 13:14:51;;;;;;;1.60;1.50;;;28.00;57.90;;;;;;4932213;29;20444;-94
2022/05/22 13:17:30;;;;;;;1.77;1.67;;;28.70;61.40;;;;;;4945515;28;20435;-90
2022/05/22 13:20:01;;;;;;;1.63;1.53;;;29.40;62.70;;;;;;4933615;29;20415;-94
2022/05/22 13:22:40;;;;;;;1.57;1.47;;;29.70;63.40;;;;;;4934591;29;20510;-93
2022/05/22 13:25:27;;;;;;;1.77;1.50;;;29.80;58.40;;;;;;4945908;28;20483;-93
2022/05/22 13:27:54;;;;;;;1.57;1.47;;;29.80;61.30;;;;;;4936558;29;20431;-94
2022/05/22 13:30:28;;;;;;;1.50;1.40;;;29.90;58.00;;;;;;4938232;29;20768;-94
2022/05/22 13:33:11;;;;;;;1.77;1.67;;;29.00;58.70;;;;;;4932874;29;20436;-94
2022/05/22 13:35:51;;;;;;;1.80;1.70;;;28.80;59.50;;;;;;4943026;29;20436;-93